Time;durP1;ratioP1;P1;durP2;ratioP2;P2;SDS_P1;SDS_P2;PMS_P1;PMS_P2;Temp;Humidity;BMP_temperature;BMP_pressure;BME280_temperature;BME280_humidity;BME280_pressure;Samples;Min_cycle;Max_cycle;Signal;HPM_P1;HPM_P2
2022/06/08 00:01:38;;;;;;;10.10;4.10;;;;;;;18.51;94.77;99859.51;3020335;77;21053;-83
2022/06/08 00:05:40;;;;;;;10.53;5.58;;;;;;;18.52;93.50;99857.95;3025842;77;21051;-83
2022/06/08 00:09:41;;;;;;;21.07;6.65;;;;;;;18.53;92.61;99853.42;3024127;77;21048;-83
2022/06/08 00:13:43;;;;;;;15.80;6.10;;;;;;;18.53;92.40;99854.23;2957679;77;21041;-83
2022/06/08 00:17:44;;;;;;;9.90;5.83;;;;;;;18.58;92.35;99850.17;2970981;78;21567;-84
2022/06/08 00:21:45;;;;;;;14.20;7.17;;;;;;;18.59;91.64;99840.53;3025688;77;20997;-83
2022/06/08 00:25:47;;;;;;;12.20;6.65;;;;;;;18.58;91.10;99846.95;2987502;77;21040;-83
2022/06/08 00:29:49;;;;;;;15.25;6.37;;;;;;;18.52;90.65;99854.45;2957670;79;20994;-82
2022/06/08 00:33:50;;;;;;;6.62;4.78;;;;;;;18.41;91.21;99845.81;3014174;77;20997;-83
2022/06/08 00:37:51;;;;;;;14.53;6.75;;;;;;;18.39;91.20;99839.78;2957554;78;20961;-83
2022/06/08 00:41:57;;;;;;;12.20;5.92;;;;;;;18.41;91.27;99832.87;2967914;77;21036;-82
2022/06/08 00:45:58;;;;;;;13.68;6.53;;;;;;;18.29;90.07;99825.80;2993792;77;21060;-83
2022/06/08 00:50:14;;;;;;;9.30;5.55;;;;;;;18.27;90.78;99821.08;3018083;77;20994;-84
2022/06/08 00:54:23;;;;;;;12.05;5.67;;;;;;;18.22;90.50;99818.13;2968773;77;21564;-83
2022/06/08 00:58:29;;;;;;;15.28;5.45;;;;;;;18.18;91.14;99812.30;2988233;77;21006;-82
2022/06/08 01:02:30;;;;;;;14.65;5.03;;;;;;;18.21;90.44;99817.80;3003001;78;21019;-84
2022/06/08 01:06:31;;;;;;;8.80;5.62;;;;;;;18.19;90.67;99811.28;3013717;76;20982;-83
2022/06/08 01:10:46;;;;;;;11.15;4.78;;;;;;;18.23;90.67;99809.03;2967991;78;20969;-83
2022/06/08 01:14:48;;;;;;;10.03;5.75;;;;;;;18.28;90.49;99807.98;2995911;77;21006;-83
2022/06/08 01:18:50;;;;;;;8.53;5.15;;;;;;;18.31;90.54;99811.63;3023574;77;21017;-83
2022/06/08 01:22:52;;;;;;;6.03;4.80;;;;;;;18.29;90.32;99811.48;2998972;77;21029;-84
2022/06/08 01:27:05;;;;;;;9.13;5.08;;;;;;;18.27;90.24;99813.01;2991661;77;21033;-83
2022/06/08 01:31:12;;;;;;;5.78;4.60;;;;;;;18.25;90.40;99802.94;2991896;77;21560;-83
2022/06/08 01:35:27;;;;;;;18.30;5.70;;;;;;;18.26;90.30;99808.65;2990840;77;21583;-83
2022/06/08 01:39:43;;;;;;;12.60;5.70;;;;;;;18.24;90.17;99795.89;2991818;77;21009;-83
2022/06/08 01:44:37;;;;;;;6.92;4.10;;;;;;;18.22;90.22;99799.28;3021613;78;21065;-83
2022/06/08 01:49:03;;;;;;;8.13;4.25;;;;;;;18.21;90.11;99800.31;3023052;77;21044;-83
2022/06/08 01:53:18;;;;;;;10.00;5.30;;;;;;;18.13;89.88;99798.55;2972518;78;21037;-83
2022/06/08 01:57:37;;;;;;;7.17;5.35;;;;;;;18.06;90.09;99795.77;2954264;79;21066;-82
2022/06/08 02:01:52;;;;;;;5.97;3.87;;;;;;;18.04;90.36;99785.70;2815646;83;21173;-83
2022/06/08 02:06:11;;;;;;;7.47;4.67;;;;;;;18.02;90.22;99781.03;2804877;83;21050;-82
2022/06/08 02:10:30;;;;;;;4.75;4.05;;;;;;;17.93;89.96;99784.83;2817671;81;21665;-81
2022/06/08 02:14:45;;;;;;;9.50;4.87;;;;;;;17.81;90.50;99785.27;2812540;83;21044;-83
2022/06/08 02:18:52;;;;;;;6.97;4.03;;;;;;;17.74;90.31;99789.73;2796981;83;21057;-83
2022/06/08 02:23:08;;;;;;;9.88;4.33;;;;;;;17.68;90.23;99783.23;2788817;84;21028;-82
2022/06/08 02:27:20;;;;;;;6.33;4.20;;;;;;;17.66;89.50;99789.81;2776116;84;21057;-83
2022/06/08 02:31:35;;;;;;;9.20;4.10;;;;;;;17.60;89.36;99790.55;2714803;85;21069;-81
2022/06/08 02:35:44;;;;;;;8.25;3.62;;;;;;;17.50;88.55;99785.45;2717784;86;21044;-83
2022/06/08 02:39:56;;;;;;;3.90;3.15;;;;;;;17.40;88.34;99787.05;2895700;80;20990;-84
2022/06/08 02:44:02;;;;;;;7.10;3.77;;;;;;;17.31;88.69;99792.20;2888307;81;20966;-83
2022/06/08 02:48:09;;;;;;;5.85;3.90;;;;;;;17.23;88.54;99785.86;2867348;81;21798;-83
2022/06/08 02:52:19;;;;;;;7.35;4.55;;;;;;;17.16;88.25;99786.77;2889954;80;21045;-84
2022/06/08 02:56:35;;;;;;;10.30;4.83;;;;;;;17.05;88.25;99790.72;2863259;81;21020;-83
2022/06/08 03:00:45;;;;;;;9.05;3.77;;;;;;;16.97;88.05;99785.72;2893064;80;20963;-84
2022/06/08 03:05:11;;;;;;;7.22;3.52;;;;;;;16.93;88.13;99788.44;2836960;82;21007;-83
2022/06/08 03:09:15;;;;;;;8.80;3.65;;;;;;;16.80;87.18;99790.39;2868606;81;21494;-83
2022/06/08 03:13:44;;;;;;;8.45;3.58;;;;;;;16.70;86.77;99797.34;2891242;80;21137;-83
2022/06/08 03:17:49;;;;;;;7.85;3.95;;;;;;;16.60;86.98;99798.55;2866934;80;21042;-84
2022/06/08 03:21:48;;;;;;;6.03;4.20;;;;;;;16.51;87.44;99799.14;2857400;80;21140;-83
2022/06/08 03:25:50;;;;;;;7.97;3.80;;;;;;;16.46;88.50;99810.39;2867899;80;21073;-83
2022/06/08 03:29:51;;;;;;;6.58;2.72;;;;;;;16.47;88.06;99810.72;2867717;80;21573;-84
2022/06/08 03:33:52;;;;;;;6.15;2.72;;;;;;;16.40;87.65;99811.08;2863436;80;21534;-83
2022/06/08 03:37:55;;;;;;;8.28;2.92;;;;;;;16.39;88.54;99822.34;2891969;80;21022;-84
2022/06/08 03:41:56;;;;;;;4.45;2.72;;;;;;;16.43;90.14;99814.78;2849010;82;21584;-84
2022/06/08 03:46:02;;;;;;;6.08;3.37;;;;;;;16.50;90.13;99825.63;2795338;82;21494;-84
2022/06/08 03:50:08;;;;;;;6.55;3.25;;;;;;;16.55;92.29;99829.45;2896941;80;21050;-84
2022/06/08 03:54:15;;;;;;;4.40;3.20;;;;;;;16.41;92.72;99827.02;2918359;79;21538;-85
2022/06/08 03:58:17;;;;;;;6.90;3.42;;;;;;;16.17;93.70;99818.56;2938837;79;21071;-83
2022/06/08 04:02:19;;;;;;;5.17;3.47;;;;;;;16.06;94.38;99819.78;2908267;79;21035;-83
2022/06/08 04:06:20;;;;;;;8.33;5.37;;;;;;;16.12;95.03;99820.45;2924487;79;20983;-85
2022/06/08 04:10:23;;;;;;;10.78;4.67;;;;;;;16.20;95.57;99810.69;2948690;79;21027;-85
2022/06/08 04:14:24;;;;;;;7.40;5.70;;;;;;;16.36;95.44;99813.30;2927366;79;21004;-84
2022/06/08 04:18:26;;;;;;;8.80;4.08;;;;;;;16.51;96.17;99810.70;2882917;80;20999;-85
2022/06/08 04:22:31;;;;;;;6.00;4.58;;;;;;;16.69;97.81;99806.90;2912346;80;21055;-84
2022/06/08 04:26:31;;;;;;;8.03;4.62;;;;;;;16.92;97.07;99810.95;2924544;79;21094;-84
2022/06/08 04:30:33;;;;;;;7.65;5.28;;;;;;;17.09;96.31;99809.48;2924509;79;20991;-84
2022/06/08 04:34:34;;;;;;;9.03;4.50;;;;;;;17.58;100.00;99806.05;2922008;79;21011;-85
2022/06/08 04:38:35;;;;;;;8.90;4.72;;;;;;;18.02;95.21;99795.83;2943736;79;21011;-83
2022/06/08 04:42:37;;;;;;;7.42;5.22;;;;;;;18.32;94.91;99802.53;2866164;79;21047;-85
2022/06/08 04:46:39;;;;;;;14.65;7.80;;;;;;;18.60;90.62;99798.29;2925982;79;21011;-84
2022/06/08 04:50:40;;;;;;;13.35;5.15;;;;;;;18.93;90.29;99804.01;2950302;79;21019;-83
2022/06/08 04:54:41;;;;;;;6.58;4.03;;;;;;;19.76;94.99;99803.95;2897537;80;21023;-83
2022/06/08 04:58:42;;;;;;;3.52;2.92;;;;;;;20.47;88.31;99799.86;2877875;81;20992;-84
2022/06/08 05:02:48;;;;;;;6.40;4.20;;;;;;;21.13;83.51;99799.68;2937094;79;21008;-84
2022/06/08 05:06:49;;;;;;;4.57;3.17;;;;;;;21.46;81.58;99793.44;2905474;80;21016;-84
2022/06/08 05:10:52;;;;;;;4.20;3.08;;;;;;;21.80;79.12;99790.16;2965751;80;21088;-83
2022/06/08 05:14:53;;;;;;;6.60;3.45;;;;;;;22.31;76.90;99787.70;2960474;79;21479;-84
2022/06/08 05:18:55;;;;;;;4.30;3.10;;;;;;;22.80;75.48;99781.84;3024102;77;21513;-84
2022/06/08 05:22:57;;;;;;;3.62;2.70;;;;;;;23.37;72.64;99780.97;3019220;77;21533;-83
2022/06/08 05:27:05;;;;;;;3.75;2.45;;;;;;;23.68;71.52;99785.50;2995966;78;21534;-82
2022/06/08 05:31:07;;;;;;;3.98;2.60;;;;;;;24.07;68.82;99773.58;3026919;77;20998;-84
2022/06/08 05:35:10;;;;;;;5.05;2.75;;;;;;;24.31;66.38;99777.80;3018734;78;30613;-83
2022/06/08 05:39:12;;;;;;;5.15;2.87;;;;;;;24.83;68.72;99770.49;2978798;77;21485;-84
2022/06/08 05:43:15;;;;;;;3.83;2.67;;;;;;;25.57;67.27;99768.45;3019599;78;21024;-83
2022/06/08 05:47:16;;;;;;;5.03;3.10;;;;;;;26.05;64.20;99770.01;3008161;77;21474;-85
2022/06/08 05:51:18;;;;;;;3.62;2.42;;;;;;;26.31;61.35;99758.81;3003190;77;21053;-84
2022/06/08 05:55:22;;;;;;;7.17;2.58;;;;;;;26.28;62.91;99764.21;3009204;76;21092;-84
2022/06/08 05:59:23;;;;;;;6.53;2.52;;;;;;;26.63;62.63;99771.41;2989819;78;21030;-84
2022/06/08 06:03:24;;;;;;;4.17;2.77;;;;;;;26.93;61.45;99767.59;2990855;79;20983;-84
2022/06/08 06:07:26;;;;;;;4.70;2.47;;;;;;;26.79;59.73;99771.13;2959945;79;21041;-84
2022/06/08 06:11:27;;;;;;;3.98;2.37;;;;;;;26.81;59.27;99764.89;2959808;79;20971;-84
2022/06/08 06:15:28;;;;;;;3.80;2.65;;;;;;;26.66;58.01;99757.83;2956966;78;21524;-85
2022/06/08 06:19:30;;;;;;;6.83;2.42;;;;;;;26.60;59.49;99758.27;2991058;78;21309;-85
2022/06/08 06:23:31;;;;;;;2.98;2.25;;;;;;;26.46;57.69;99758.27;2997945;78;20942;-85
2022/06/08 06:27:32;;;;;;;4.25;2.25;;;;;;;26.37;59.21;99757.31;2995884;78;21011;-84
2022/06/08 06:31:44;;;;;;;4.85;2.12;;;;;;;26.42;57.29;99746.20;2973710;78;21648;-84
2022/06/08 06:35:46;;;;;;;5.60;2.42;;;;;;;26.25;58.09;99748.34;2995890;78;21010;-84
2022/06/08 06:39:47;;;;;;;7.70;2.25;;;;;;;26.41;56.55;99745.36;2925478;78;20979;-84
2022/06/08 06:43:49;;;;;;;3.15;1.82;;;;;;;26.57;59.03;99749.22;2942277;79;21057;-85
2022/06/08 06:47:50;;;;;;;3.40;2.75;;;;;;;26.31;57.77;99745.19;2976885;79;21017;-84
2022/06/08 06:51:53;;;;;;;3.20;2.12;;;;;;;25.83;58.19;99750.74;2977628;78;21049;-84
2022/06/08 06:55:55;;;;;;;4.67;2.37;;;;;;;25.46;58.12;99751.84;2985507;77;21555;-84
2022/06/08 06:59:56;;;;;;;2.58;2.20;;;;;;;25.19;58.77;99760.49;2989262;78;21045;-85
2022/06/08 07:03:57;;;;;;;6.08;2.30;;;;;;;24.91;60.18;99757.90;2983865;76;21599;-84
2022/06/08 07:07:59;;;;;;;4.45;2.60;;;;;;;24.74;63.08;99759.60;2988774;78;21082;-84
2022/06/08 07:12:00;;;;;;;2.95;2.70;;;;;;;24.80;63.15;99751.92;2969774;77;21076;-84
2022/06/08 07:16:01;;;;;;;3.85;2.65;;;;;;;24.85;62.51;99749.33;2994630;77;21068;-84
2022/06/08 07:20:04;;;;;;;2.50;1.90;;;;;;;24.78;63.73;99749.97;2981451;77;21048;-84
2022/06/08 07:24:06;;;;;;;3.80;3.02;;;;;;;24.99;61.60;99750.48;2949102;78;20990;-84
2022/06/08 07:28:07;;;;;;;4.12;2.33;;;;;;;25.46;60.42;99746.39;3025338;77;20986;-84
2022/06/08 07:32:08;;;;;;;3.00;2.70;;;;;;;25.74;58.62;99748.92;2880656;80;21006;-84
2022/06/08 07:36:10;;;;;;;9.58;3.20;;;;;;;25.96;58.31;99749.67;3025502;78;21013;-84
2022/06/08 07:40:12;;;;;;;2.92;2.72;;;;;;;26.43;57.60;99748.67;3016199;77;21080;-85
2022/06/08 07:44:14;;;;;;;2.92;2.17;;;;;;;26.48;57.34;99753.39;3016047;78;20977;-83
2022/06/08 07:52:35;;;;;;;5.12;3.02;;;;;;;26.45;58.37;99753.37;2989090;78;21056;-84
2022/06/08 07:56:36;;;;;;;9.83;3.08;;;;;;;26.80;57.47;99752.88;3003999;77;21002;-84
2022/06/08 08:00:38;;;;;;;3.22;2.45;;;;;;;27.33;55.76;99749.92;2965971;79;21473;-84
2022/06/08 08:04:39;;;;;;;5.65;2.58;;;;;;;27.79;56.64;99742.37;2969197;78;21014;-84
2022/06/08 08:08:40;;;;;;;3.90;2.65;;;;;;;27.84;54.89;99736.16;2940888;78;20990;-84
2022/06/08 08:12:41;;;;;;;2.70;2.50;;;;;;;28.06;54.90;99737.48;3005306;77;21371;-84
2022/06/08 08:16:43;;;;;;;3.10;2.37;;;;;;;27.98;54.40;99735.74;2997418;78;21017;-84
2022/06/08 08:20:44;;;;;;;4.95;3.27;;;;;;;27.93;52.38;99734.61;2973435;78;21003;-84
2022/06/08 08:24:45;;;;;;;4.17;2.55;;;;;;;28.09;53.62;99726.59;3001793;78;21490;-84
2022/06/08 08:28:46;;;;;;;5.20;2.50;;;;;;;28.46;53.94;99730.55;3000983;78;21021;-84
2022/06/08 08:32:47;;;;;;;4.60;2.90;;;;;;;28.68;50.85;99731.02;2981729;78;21045;-84
2022/06/08 08:36:49;;;;;;;6.33;2.30;;;;;;;28.69;53.01;99732.66;2971185;78;20999;-85
2022/06/08 08:40:55;;;;;;;2.42;2.22;;;;;;;28.48;52.57;99729.21;2970236;79;21037;-84
2022/06/08 08:45:05;;;;;;;2.67;2.45;;;;;;;28.43;54.28;99718.23;3003216;77;21006;-84
2022/06/08 08:49:19;;;;;;;3.25;1.95;;;;;;;28.63;53.85;99721.68;2996783;78;21091;-85
2022/06/08 08:53:35;;;;;;;1.85;1.55;;;;;;;28.57;53.37;99726.00;2970252;78;21037;-84
2022/06/08 08:57:53;;;;;;;2.65;1.40;;;;;;;28.49;51.72;99719.08;2984120;77;21025;-85
2022/06/08 09:01:55;;;;;;;2.02;1.62;;;;;;;28.34;51.46;99712.93;2988059;78;21081;-84
2022/06/08 09:06:08;;;;;;;3.30;1.10;;;;;;;28.25;51.76;99715.30;2984509;78;21001;-84
2022/06/08 09:10:20;;;;;;;3.08;1.37;;;;;;;28.33;50.33;99713.48;3035814;76;21021;-84
2022/06/08 09:14:26;;;;;;;2.98;1.70;;;;;;;28.45;50.10;99709.75;3027970;77;21060;-85
2022/06/08 09:18:40;;;;;;;2.05;1.85;;;;;;;28.73;51.40;99714.66;3025993;77;20994;-84
2022/06/08 09:22:46;;;;;;;3.70;1.47;;;;;;;28.83;48.79;99705.18;2985279;78;21336;-83
2022/06/08 09:26:47;;;;;;;1.98;1.80;;;;;;;28.91;49.08;99705.24;2980701;78;20990;-84
2022/06/08 09:30:51;;;;;;;5.40;2.08;;;;;;;29.01;51.18;99697.65;2981583;78;20967;-84
2022/06/08 09:35:00;;;;;;;2.20;1.70;;;;;;;28.52;50.26;99689.87;3017880;77;21009;-84
2022/06/08 09:39:02;;;;;;;11.18;2.33;;;;;;;28.07;51.77;99690.49;3000305;78;21176;-84
2022/06/08 09:43:25;;;;;;;2.15;1.92;;;;;;;27.97;50.60;99687.63;2959267;77;21025;-84
2022/06/08 09:52:36;;;;;;;3.00;1.60;;;;;;;28.27;51.27;99693.19;3024193;77;21014;-83
2022/06/08 09:56:54;;;;;;;1.17;1.07;;;;;;;28.41;50.83;99681.28;2894137;79;21018;-84
2022/06/08 10:01:22;;;;;;;2.65;1.40;;;;;;;28.33;50.64;99682.57;2872071;81;21116;-84
2022/06/08 10:05:37;;;;;;;1.40;1.12;;;;;;;27.97;50.77;99677.55;2895943;80;21130;-85
2022/06/08 10:10:12;;;;;;;;;;;;;;;28.10;48.63;99674.94;2899753;80;20994;-84
2022/06/08 10:14:36;;;;;;;3.55;1.57;;;;;;;28.30;50.06;99670.26;2894879;80;20127;-83
2022/06/08 10:18:52;;;;;;;4.80;1.65;;;;;;;28.41;48.47;99664.87;2897184;80;21003;-84
2022/06/08 10:23:02;;;;;;;3.35;1.80;;;;;;;28.42;48.59;99661.88;2899420;81;21093;-84
2022/06/08 10:27:23;;;;;;;2.35;1.85;;;;;;;28.43;49.21;99655.33;2898165;81;21029;-84
2022/06/08 10:31:41;;;;;;;3.95;2.20;;;;;;;28.28;49.36;99656.00;2917130;77;21132;-84
2022/06/08 10:35:50;;;;;;;1.95;1.65;;;;;;;28.21;47.26;99654.02;2961236;78;21509;-83
2022/06/08 10:39:51;;;;;;;2.45;1.72;;;;;;;28.26;47.25;99649.97;2966301;79;20950;-85
2022/06/08 10:43:52;;;;;;;5.08;2.25;;;;;;;28.21;50.75;99658.97;2973460;79;20982;-85
2022/06/08 10:48:24;;;;;;;6.17;2.55;;;;;;;28.34;49.43;99654.14;3000720;79;20998;-84
2022/06/08 10:52:45;;;;;;;2.10;1.80;;;;;;;28.20;51.33;99653.75;2995295;77;21002;-85
2022/06/08 10:56:51;;;;;;;3.30;2.00;;;;;;;28.07;52.15;99658.50;3019446;77;20994;-84
2022/06/08 11:00:58;;;;;;;2.77;1.90;;;;;;;27.94;52.27;99655.64;2987814;78;21025;-83
2022/06/08 11:05:29;;;;;;;2.65;1.82;;;;;;;27.81;51.44;99657.43;3018593;77;21044;-84
2022/06/08 11:09:45;;;;;;;1.82;1.37;;;;;;;27.58;51.81;99658.52;3014505;77;20962;-85
2022/06/08 11:13:52;;;;;;;1.52;1.27;;;;;;;27.60;48.52;99646.80;3015551;78;21001;-85
2022/06/08 11:18:02;;;;;;;3.00;2.27;;;;;;;27.64;46.89;99647.41;2993320;77;21012;-84
2022/06/08 11:22:14;;;;;;;2.37;1.52;;;;;;;27.62;49.11;99652.30;2991010;77;20993;-84
2022/06/08 11:26:23;;;;;;;2.40;1.62;;;;;;;27.69;50.92;99638.97;2983283;76;21040;-83
2022/06/08 11:30:39;;;;;;;1.90;1.67;;;;;;;27.76;51.88;99637.70;3013561;77;21060;-84
2022/06/08 11:35:08;;;;;;;2.85;1.67;;;;;;;27.93;49.06;99631.32;2990316;77;21041;-84
2022/06/08 11:39:33;;;;;;;3.98;1.90;;;;;;;27.88;50.66;99636.70;2992025;77;21036;-84
2022/06/08 11:43:37;;;;;;;1.70;1.25;;;;;;;27.54;49.31;99630.88;3014752;78;21002;-84
2022/06/08 11:47:53;;;;;;;3.75;1.35;;;;;;;27.56;47.87;99630.08;3004345;77;21366;-84
2022/06/08 11:51:54;;;;;;;2.65;1.45;;;;;;;27.55;47.62;99631.16;3024542;76;21076;-84
2022/06/08 11:56:25;;;;;;;3.37;1.55;;;;;;;27.71;47.77;99632.71;3017507;76;21030;-83
2022/06/08 12:00:44;;;;;;;5.03;1.82;;;;;;;27.91;45.87;99621.19;2979726;78;21017;-85
2022/06/08 12:04:50;;;;;;;3.52;1.55;;;;;;;28.14;48.00;99620.03;2960815;78;21076;-83
2022/06/08 12:08:56;;;;;;;3.62;1.52;;;;;;;28.34;48.82;99608.49;3003333;78;20971;-84
2022/06/08 12:12:58;;;;;;;3.05;1.80;;;;;;;28.49;53.43;99605.57;2966984;78;21045;-84
2022/06/08 12:17:11;;;;;;;3.75;1.77;;;;;;;28.54;50.53;99604.27;2971898;78;21025;-84
2022/06/08 12:21:34;;;;;;;1.45;1.35;;;;;;;28.54;51.32;99597.42;2966690;79;21036;-84
2022/06/08 12:25:36;;;;;;;2.77;1.45;;;;;;;28.69;50.52;99596.70;2969355;79;20982;-85
2022/06/08 12:29:52;;;;;;;1.32;1.17;;;;;;;28.31;48.95;99594.50;3003188;78;21025;-84
2022/06/08 12:33:53;;;;;;;2.47;1.40;;;;;;;27.87;48.13;99591.34;2977711;78;21010;-83
2022/06/08 12:38:30;;;;;;;5.70;3.08;;;;;;;27.49;48.69;99591.20;2997034;78;20979;-83
2022/06/08 12:42:37;;;;;;;2.75;2.15;;;;;;;27.60;49.32;99586.70;2980218;78;21005;-85
2022/06/08 12:46:39;;;;;;;2.17;1.30;;;;;;;27.67;47.78;99586.51;2996359;78;21037;-84
2022/06/08 12:50:40;;;;;;;2.22;1.60;;;;;;;27.91;47.52;99574.73;2933868;79;21024;-84
2022/06/08 12:54:41;;;;;;;2.17;1.52;;;;;;;28.26;47.30;99574.77;2903282;80;21340;-83
2022/06/08 12:58:42;;;;;;;3.08;1.50;;;;;;;28.28;47.20;99571.80;2904504;79;21010;-85
2022/06/08 13:02:44;;;;;;;7.37;1.92;;;;;;;28.38;45.79;99568.31;2894813;82;21015;-84
2022/06/08 13:06:46;;;;;;;2.50;1.72;;;;;;;28.63;46.42;99559.46;2872819;82;20944;-84
2022/06/08 13:10:50;;;;;;;3.40;1.67;;;;;;;28.57;47.88;99555.03;2864118;80;21025;-83
2022/06/08 13:14:52;;;;;;;4.28;1.72;;;;;;;28.29;47.66;99555.11;2861151;80;21121;-85
2022/06/08 13:18:56;;;;;;;2.12;1.77;;;;;;;28.26;48.63;99547.44;2885363;80;21602;-85
2022/06/08 13:22:58;;;;;;;3.55;1.98;;;;;;;28.34;46.71;99542.86;2888560;80;21025;-85
2022/06/08 13:27:01;;;;;;;1.40;1.30;;;;;;;28.21;45.91;99541.41;2887187;80;20974;-86
2022/06/08 13:31:04;;;;;;;1.50;1.40;;;;;;;28.12;45.85;99536.66;2897111;80;21596;-87
2022/06/08 13:35:05;;;;;;;1.50;1.37;;;;;;;28.20;46.40;99538.92;2866716;82;21019;-85
2022/06/08 13:39:12;;;;;;;2.33;1.80;;;;;;;28.08;46.86;99539.88;2875215;80;21006;-86
2022/06/08 13:43:13;;;;;;;3.33;2.02;;;;;;;28.16;47.54;99530.41;2872899;80;21112;-83
2022/06/08 13:47:19;;;;;;;2.47;1.32;;;;;;;28.40;48.51;99534.69;2858512;82;21036;-84
2022/06/08 13:51:21;;;;;;;1.47;1.35;;;;;;;28.45;47.32;99530.08;2870534;80;21003;-87
2022/06/08 13:55:31;;;;;;;3.52;2.25;;;;;;;28.40;46.83;99522.38;2897226;81;21101;-86
2022/06/08 13:59:34;;;;;;;3.40;1.75;;;;;;;28.42;46.28;99517.47;2937573;79;21055;-86
2022/06/08 14:03:38;;;;;;;1.92;1.32;;;;;;;28.46;48.12;99515.84;2881491;80;21481;-86
2022/06/08 14:16:20;;;;;;;1.67;1.57;;;;;;;28.52;46.72;99503.88;2891760;79;21057;-86
2022/06/08 14:20:28;;;;;;;4.47;2.20;;;;;;;28.65;46.38;99504.75;2920525;80;21042;-87
2022/06/08 14:24:45;;;;;;;2.50;2.30;;;;;;;28.85;46.03;99506.53;2918614;81;21050;-86
2022/06/08 14:28:51;;;;;;;2.87;2.62;;;;;;;28.95;45.55;99496.97;2909414;80;21034;-84
2022/06/08 14:32:57;;;;;;;2.10;1.90;;;;;;;28.97;44.82;99484.41;2923704;79;21594;-87
2022/06/08 14:37:02;;;;;;;3.05;2.30;;;;;;;28.98;47.41;99482.75;2907057;80;21022;-85
2022/06/08 14:41:06;;;;;;;3.70;2.12;;;;;;;28.80;48.39;99482.69;2922136;79;21056;-84
2022/06/08 14:45:09;;;;;;;2.10;1.90;;;;;;;28.41;47.69;99477.01;2923895;80;21046;-86
2022/06/08 14:49:19;;;;;;;2.85;2.45;;;;;;;28.33;47.44;99474.22;2911235;80;21037;-86
2022/06/08 14:53:23;;;;;;;6.78;2.33;;;;;;;28.33;46.65;99467.92;2892906;80;21021;-84
2022/06/08 14:57:34;;;;;;;4.87;2.02;;;;;;;28.32;48.33;99458.91;2887557;80;21037;-84
2022/06/08 15:01:35;;;;;;;3.37;2.37;;;;;;;28.31;47.21;99460.00;2900964;81;21055;-83
2022/06/08 15:05:36;;;;;;;3.55;2.40;;;;;;;28.34;47.91;99458.09;2887052;80;21107;-84
2022/06/08 15:09:38;;;;;;;3.02;1.60;;;;;;;28.43;46.66;99454.84;2909930;80;21025;-84
2022/06/08 15:13:43;;;;;;;2.60;2.12;;;;;;;28.29;46.65;99443.00;2896878;80;21002;-85
2022/06/08 15:17:46;;;;;;;2.75;1.42;;;;;;;28.02;47.18;99450.74;2901097;79;21025;-86
2022/06/08 15:21:51;;;;;;;7.35;2.62;;;;;;;27.71;47.53;99453.78;2827513;81;21029;-85
2022/06/08 15:25:55;;;;;;;2.85;2.15;;;;;;;27.36;48.81;99449.08;2966129;78;21363;-87
2022/06/08 15:29:57;;;;;;;2.98;2.33;;;;;;;27.17;49.21;99448.06;2954311;78;20966;-85
2022/06/08 15:33:58;;;;;;;3.25;2.15;;;;;;;27.09;49.33;99444.41;2949894;79;20998;-85
2022/06/08 15:38:03;;;;;;;3.35;2.25;;;;;;;27.13;50.68;99440.64;2934218;80;21023;-86
2022/06/08 15:42:06;;;;;;;3.58;2.33;;;;;;;27.30;49.52;99437.27;2954421;80;21008;-84
2022/06/08 15:46:09;;;;;;;3.77;2.22;;;;;;;27.41;49.00;99436.83;2936757;79;20980;-84
2022/06/08 15:50:18;;;;;;;4.15;2.47;;;;;;;27.35;47.28;99435.95;2938058;78;21601;-85
2022/06/08 15:54:28;;;;;;;5.60;2.37;;;;;;;27.30;48.37;99435.08;2932897;80;21566;-85
2022/06/08 15:58:29;;;;;;;3.87;2.15;;;;;;;27.29;47.59;99432.06;2934248;80;21485;-85
2022/06/08 16:02:30;;;;;;;4.20;1.92;;;;;;;27.33;47.38;99431.85;3005428;77;20989;-85
2022/06/08 16:06:32;;;;;;;3.25;2.35;;;;;;;27.31;47.68;99425.27;2994991;78;20998;-84
2022/06/08 16:10:35;;;;;;;6.53;2.02;;;;;;;27.28;48.20;99427.69;3008501;78;20974;-83
2022/06/08 16:14:36;;;;;;;3.10;2.70;;;;;;;27.27;48.15;99426.88;3024509;77;20982;-84
2022/06/08 16:18:37;;;;;;;2.10;1.90;;;;;;;27.30;49.30;99424.98;2958622;77;21028;-83
2022/06/08 16:22:39;;;;;;;3.45;1.90;;;;;;;27.35;48.47;99420.94;3000255;77;21019;-83
2022/06/08 16:26:40;;;;;;;2.00;1.80;;;;;;;27.32;50.38;99426.92;2997207;76;21022;-84
2022/06/08 16:30:42;;;;;;;30.88;16.45;;;;;;;27.19;49.97;99418.61;2992042;78;68415;-64
2022/06/08 16:34:44;;;;;;;4.87;2.90;;;;;;;27.04;52.78;99419.80;2979316;78;21057;-64
2022/06/08 16:38:46;;;;;;;9.35;7.45;;;;;;;26.96;50.58;99425.73;2788615;82;70696;-81
2022/06/08 16:42:49;;;;;;;5.47;3.27;;;;;;;26.71;51.53;99424.30;2798889;83;21070;-81
2022/06/08 16:46:52;;;;;;;6.65;4.08;;;;;;;26.45;51.41;99423.98;2804520;83;21018;-83
2022/06/08 16:50:56;;;;;;;3.55;2.10;;;;;;;26.33;52.53;99422.19;2785963;83;21034;-80
2022/06/08 16:54:57;;;;;;;5.95;3.58;;;;;;;26.21;52.51;99414.68;2811547;83;21041;-83
2022/06/08 17:03:18;;;;;;;14.83;6.67;;;;;;;26.03;53.57;99411.12;2811657;82;21027;-84
2022/06/08 17:07:22;;;;;;;9.98;6.87;;;;;;;25.80;54.11;99417.58;2780412;83;21015;-83
2022/06/08 17:11:38;;;;;;;5.47;4.55;;;;;;;25.50;53.54;99422.82;2816240;83;21559;-83
2022/06/08 17:15:39;;;;;;;7.58;4.83;;;;;;;25.37;53.96;99422.02;2829697;83;21082;-86
2022/06/08 17:19:41;;;;;;;8.28;5.22;;;;;;;25.20;54.67;99419.28;2823764;82;21073;-86
2022/06/08 17:23:42;;;;;;;5.65;3.12;;;;;;;25.03;54.80;99426.56;2824389;82;21026;-87
2022/06/08 17:27:45;;;;;;;3.77;2.50;;;;;;;24.91;55.13;99425.25;2763177;83;21073;-86
2022/06/08 17:31:50;;;;;;;17.77;10.50;;;;;;;24.78;55.60;99428.53;2811287;82;21042;-88
2022/06/08 17:35:52;;;;;;;;;;;;;;;24.74;56.07;99425.98;2807327;82;21046;-86
2022/06/08 17:39:53;;;;;;;26.37;13.80;;;;;;;24.67;56.20;99420.67;2825539;82;20116;-84
2022/06/08 17:43:54;;;;;;;22.70;8.08;;;;;;;24.60;56.28;99422.71;2821283;81;21619;-84
2022/06/08 17:47:55;;;;;;;12.40;9.38;;;;;;;24.43;56.95;99418.53;2824587;82;21010;-84
2022/06/08 17:51:56;;;;;;;14.47;7.45;;;;;;;24.23;58.43;99414.85;2868943;82;21010;-84
2022/06/08 17:55:57;;;;;;;21.48;11.03;;;;;;;24.05;58.48;99412.55;2861419;82;21037;-84
2022/06/08 18:00:03;;;;;;;9.75;5.33;;;;;;;23.87;58.96;99404.48;2852924;81;21438;-83
2022/06/08 18:04:04;;;;;;;4.55;2.70;;;;;;;23.68;60.06;99407.30;2891501;81;21040;-84
2022/06/08 18:08:07;;;;;;;4.15;3.05;;;;;;;23.54;60.87;99400.72;2837941;81;21600;-84
2022/06/08 18:12:11;;;;;;;15.60;9.25;;;;;;;23.32;61.77;99402.33;2846706;80;21049;-85
2022/06/08 18:16:12;;;;;;;12.70;10.45;;;;;;;23.22;62.04;99396.92;2869869;80;21540;-84
2022/06/08 18:20:22;;;;;;;8.25;5.35;;;;;;;23.16;62.53;99403.24;2866791;81;21302;-83
2022/06/08 18:24:24;;;;;;;10.25;6.03;;;;;;;23.02;62.67;99396.38;2880429;80;20975;-84
2022/06/08 18:28:27;;;;;;;4.00;3.60;;;;;;;22.80;63.62;99396.88;2880790;80;21001;-85
2022/06/08 18:32:31;;;;;;;4.30;2.85;;;;;;;22.60;64.33;99397.95;2888799;81;21030;-84
2022/06/08 18:36:33;;;;;;;2.87;2.25;;;;;;;22.37;65.50;99396.70;2866928;81;21065;-85
2022/06/08 18:40:36;;;;;;;4.95;2.47;;;;;;;22.15;67.13;99400.39;2792434;81;21045;-83
2022/06/08 18:44:39;;;;;;;2.53;2.27;;;;;;;21.99;68.37;99401.77;2895563;80;21070;-84
2022/06/08 18:48:40;;;;;;;6.17;2.52;;;;;;;21.75;68.88;99402.12;2873037;81;21057;-83
2022/06/08 18:52:45;;;;;;;5.75;3.08;;;;;;;21.45;69.90;99410.33;2872138;81;21006;-93
2022/06/08 18:56:47;;;;;;;3.05;2.75;;;;;;;21.22;70.91;99414.43;2874486;80;21024;-84
2022/06/08 19:00:48;;;;;;;4.17;3.80;;;;;;;20.98;72.16;99414.66;2908169;80;21007;-83
2022/06/08 19:04:50;;;;;;;3.20;2.80;;;;;;;20.77;73.74;99426.05;2805397;84;21034;-83
2022/06/08 19:08:53;;;;;;;4.12;3.65;;;;;;;20.64;74.30;99428.80;2807161;82;21073;-82
2022/06/08 19:12:54;;;;;;;3.33;3.00;;;;;;;20.50;75.16;99428.83;2844571;82;21039;-82
2022/06/08 19:16:55;;;;;;;5.67;4.33;;;;;;;20.37;75.69;99437.80;2859759;81;21026;-83
2022/06/08 19:20:59;;;;;;;4.25;3.85;;;;;;;20.31;76.22;99444.05;2853596;81;21084;-83
2022/06/08 19:25:00;;;;;;;5.83;3.98;;;;;;;20.19;77.06;99440.33;2847358;81;21042;-83
2022/06/08 19:29:05;;;;;;;5.40;3.80;;;;;;;20.09;77.20;99456.45;2845855;81;21025;-83
2022/06/08 19:33:06;;;;;;;4.80;4.20;;;;;;;19.97;78.55;99466.20;2830509;81;21206;-84
2022/06/08 19:37:07;;;;;;;7.00;3.72;;;;;;;19.85;78.46;99475.41;2840671;82;21018;-83